sensor_id;sensor_type;location;lat;lon;timestamp;P1;durP1;ratioP1;P2;durP2;ratioP2
5277;SDS011;2662;51.194;6.614;2023-02-04T00:00:11;17.03;;;3.30;;
5277;SDS011;2662;51.194;6.614;2023-02-04T00:02:40;18.23;;;2.83;;
5277;SDS011;2662;51.194;6.614;2023-02-04T00:05:07;12.87;;;3.20;;
5277;SDS011;2662;51.194;6.614;2023-02-04T00:07:35;13.57;;;2.47;;
5277;SDS011;2662;51.194;6.614;2023-02-04T00:10:03;24.37;;;3.00;;
5277;SDS011;2662;51.194;6.614;2023-02-04T00:12:31;15.80;;;3.33;;
5277;SDS011;2662;51.194;6.614;2023-02-04T00:14:59;17.33;;;3.50;;
5277;SDS011;2662;51.194;6.614;2023-02-04T00:17:26;13.33;;;3.07;;
5277;SDS011;2662;51.194;6.614;2023-02-04T00:19:52;21.83;;;3.17;;
5277;SDS011;2662;51.194;6.614;2023-02-04T00:22:19;16.37;;;3.33;;
5277;SDS011;2662;51.194;6.614;2023-02-04T00:24:46;16.63;;;3.27;;
5277;SDS011;2662;51.194;6.614;2023-02-04T00:27:14;27.10;;;3.70;;
5277;SDS011;2662;51.194;6.614;2023-02-04T00:29:41;17.67;;;2.83;;
5277;SDS011;2662;51.194;6.614;2023-02-04T00:32:09;19.50;;;2.97;;
5277;SDS011;2662;51.194;6.614;2023-02-04T00:34:36;10.73;;;2.73;;
5277;SDS011;2662;51.194;6.614;2023-02-04T00:37:03;16.20;;;2.67;;
5277;SDS011;2662;51.194;6.614;2023-02-04T00:39:29;14.97;;;2.80;;
5277;SDS011;2662;51.194;6.614;2023-02-04T00:41:56;14.40;;;3.00;;
5277;SDS011;2662;51.194;6.614;2023-02-04T00:44:23;16.20;;;3.07;;
5277;SDS011;2662;51.194;6.614;2023-02-04T00:46:49;17.90;;;2.73;;
5277;SDS011;2662;51.194;6.614;2023-02-04T00:49:17;24.60;;;3.13;;
5277;SDS011;2662;51.194;6.614;2023-02-04T00:51:44;21.73;;;3.80;;
5277;SDS011;2662;51.194;6.614;2023-02-04T00:54:11;18.20;;;3.53;;
5277;SDS011;2662;51.194;6.614;2023-02-04T00:56:39;17.10;;;2.40;;
5277;SDS011;2662;51.194;6.614;2023-02-04T00:59:06;19.27;;;3.40;;
5277;SDS011;2662;51.194;6.614;2023-02-04T01:01:33;12.27;;;2.50;;
5277;SDS011;2662;51.194;6.614;2023-02-04T01:04:00;22.13;;;2.60;;
5277;SDS011;2662;51.194;6.614;2023-02-04T01:06:28;19.73;;;3.00;;
5277;SDS011;2662;51.194;6.614;2023-02-04T01:08:55;17.07;;;2.50;;
5277;SDS011;2662;51.194;6.614;2023-02-04T01:11:22;13.30;;;3.07;;
5277;SDS011;2662;51.194;6.614;2023-02-04T01:13:49;20.23;;;3.27;;
5277;SDS011;2662;51.194;6.614;2023-02-04T01:16:15;17.77;;;3.07;;
5277;SDS011;2662;51.194;6.614;2023-02-04T01:18:42;19.00;;;3.23;;
5277;SDS011;2662;51.194;6.614;2023-02-04T01:21:09;20.97;;;3.00;;
5277;SDS011;2662;51.194;6.614;2023-02-04T01:23:37;20.17;;;3.27;;
5277;SDS011;2662;51.194;6.614;2023-02-04T01:26:04;13.13;;;2.40;;
5277;SDS011;2662;51.194;6.614;2023-02-04T01:28:30;18.83;;;2.73;;
5277;SDS011;2662;51.194;6.614;2023-02-04T01:30:57;11.53;;;2.70;;
5277;SDS011;2662;51.194;6.614;2023-02-04T01:33:25;25.17;;;3.23;;
5277;SDS011;2662;51.194;6.614;2023-02-04T01:35:51;15.70;;;3.30;;
5277;SDS011;2662;51.194;6.614;2023-02-04T01:38:18;22.50;;;2.67;;
5277;SDS011;2662;51.194;6.614;2023-02-04T01:40:46;15.73;;;2.70;;
5277;SDS011;2662;51.194;6.614;2023-02-04T01:43:13;25.40;;;3.23;;
5277;SDS011;2662;51.194;6.614;2023-02-04T01:45:41;19.37;;;3.53;;
5277;SDS011;2662;51.194;6.614;2023-02-04T01:48:08;25.00;;;3.43;;
5277;SDS011;2662;51.194;6.614;2023-02-04T01:50:36;12.83;;;2.63;;
5277;SDS011;2662;51.194;6.614;2023-02-04T01:53:03;20.43;;;3.00;;
5277;SDS011;2662;51.194;6.614;2023-02-04T01:55:31;15.30;;;2.17;;
5277;SDS011;2662;51.194;6.614;2023-02-04T01:57:59;26.07;;;3.50;;
5277;SDS011;2662;51.194;6.614;2023-02-04T02:00:27;21.77;;;2.93;;
5277;SDS011;2662;51.194;6.614;2023-02-04T02:02:55;17.47;;;2.50;;
5277;SDS011;2662;51.194;6.614;2023-02-04T02:05:23;16.70;;;3.20;;
5277;SDS011;2662;51.194;6.614;2023-02-04T02:07:52;12.53;;;2.80;;
5277;SDS011;2662;51.194;6.614;2023-02-04T02:10:21;18.17;;;3.30;;
5277;SDS011;2662;51.194;6.614;2023-02-04T02:12:49;18.50;;;2.83;;
5277;SDS011;2662;51.194;6.614;2023-02-04T02:15:17;16.87;;;2.60;;
5277;SDS011;2662;51.194;6.614;2023-02-04T02:17:44;16.60;;;2.60;;
5277;SDS011;2662;51.194;6.614;2023-02-04T02:20:12;14.17;;;2.80;;
5277;SDS011;2662;51.194;6.614;2023-02-04T02:22:42;20.53;;;2.80;;
5277;SDS011;2662;51.194;6.614;2023-02-04T02:25:17;15.53;;;2.60;;
5277;SDS011;2662;51.194;6.614;2023-02-04T02:27:44;18.37;;;2.67;;
5277;SDS011;2662;51.194;6.614;2023-02-04T02:30:11;25.63;;;2.73;;
5277;SDS011;2662;51.194;6.614;2023-02-04T02:32:41;10.53;;;2.37;;
5277;SDS011;2662;51.194;6.614;2023-02-04T02:35:08;10.17;;;3.20;;
5277;SDS011;2662;51.194;6.614;2023-02-04T02:37:35;18.67;;;3.53;;
5277;SDS011;2662;51.194;6.614;2023-02-04T02:40:02;23.97;;;3.20;;
5277;SDS011;2662;51.194;6.614;2023-02-04T02:42:31;24.90;;;3.17;;
5277;SDS011;2662;51.194;6.614;2023-02-04T02:44:58;20.60;;;2.80;;
5277;SDS011;2662;51.194;6.614;2023-02-04T02:47:25;21.53;;;3.10;;
5277;SDS011;2662;51.194;6.614;2023-02-04T02:49:53;13.93;;;2.73;;
5277;SDS011;2662;51.194;6.614;2023-02-04T02:52:20;18.10;;;3.23;;
5277;SDS011;2662;51.194;6.614;2023-02-04T02:54:47;13.23;;;2.40;;
5277;SDS011;2662;51.194;6.614;2023-02-04T02:57:14;15.63;;;2.20;;
5277;SDS011;2662;51.194;6.614;2023-02-04T02:59:44;22.27;;;2.73;;
5277;SDS011;2662;51.194;6.614;2023-02-04T03:02:11;13.90;;;2.53;;
5277;SDS011;2662;51.194;6.614;2023-02-04T03:04:43;12.53;;;2.70;;
5277;SDS011;2662;51.194;6.614;2023-02-04T03:07:12;14.27;;;3.00;;
5277;SDS011;2662;51.194;6.614;2023-02-04T03:09:40;22.03;;;2.80;;
5277;SDS011;2662;51.194;6.614;2023-02-04T03:12:07;14.60;;;2.00;;
5277;SDS011;2662;51.194;6.614;2023-02-04T03:14:34;25.37;;;2.67;;
5277;SDS011;2662;51.194;6.614;2023-02-04T03:17:03;15.50;;;2.77;;
5277;SDS011;2662;51.194;6.614;2023-02-04T03:19:32;13.80;;;2.67;;
5277;SDS011;2662;51.194;6.614;2023-02-04T03:22:00;12.90;;;2.40;;
5277;SDS011;2662;51.194;6.614;2023-02-04T03:24:28;21.27;;;2.90;;
5277;SDS011;2662;51.194;6.614;2023-02-04T03:26:56;18.23;;;2.87;;
5277;SDS011;2662;51.194;6.614;2023-02-04T03:29:23;16.17;;;2.80;;
5277;SDS011;2662;51.194;6.614;2023-02-04T03:31:49;9.40;;;2.23;;
5277;SDS011;2662;51.194;6.614;2023-02-04T03:34:18;16.90;;;3.50;;
5277;SDS011;2662;51.194;6.614;2023-02-04T03:36:44;15.40;;;2.73;;
5277;SDS011;2662;51.194;6.614;2023-02-04T03:39:11;36.23;;;3.17;;
5277;SDS011;2662;51.194;6.614;2023-02-04T03:41:38;11.33;;;2.53;;
5277;SDS011;2662;51.194;6.614;2023-02-04T03:44:04;26.03;;;3.60;;
5277;SDS011;2662;51.194;6.614;2023-02-04T03:46:31;13.50;;;3.20;;
5277;SDS011;2662;51.194;6.614;2023-02-04T03:48:58;23.03;;;2.60;;
5277;SDS011;2662;51.194;6.614;2023-02-04T03:51:26;18.37;;;2.83;;
5277;SDS011;2662;51.194;6.614;2023-02-04T03:53:52;25.53;;;2.93;;
5277;SDS011;2662;51.194;6.614;2023-02-04T03:56:19;15.50;;;1.90;;
5277;SDS011;2662;51.194;6.614;2023-02-04T03:58:46;20.57;;;3.67;;
5277;SDS011;2662;51.194;6.614;2023-02-04T04:01:13;16.43;;;2.40;;
5277;SDS011;2662;51.194;6.614;2023-02-04T04:03:40;20.30;;;2.87;;
5277;SDS011;2662;51.194;6.614;2023-02-04T04:06:07;23.13;;;3.20;;
5277;SDS011;2662;51.194;6.614;2023-02-04T04:08:36;13.57;;;2.57;;
5277;SDS011;2662;51.194;6.614;2023-02-04T04:11:03;20.23;;;2.80;;
5277;SDS011;2662;51.194;6.614;2023-02-04T04:13:30;13.73;;;3.00;;
5277;SDS011;2662;51.194;6.614;2023-02-04T04:15:56;24.53;;;3.00;;
5277;SDS011;2662;51.194;6.614;2023-02-04T04:18:23;35.17;;;3.70;;
5277;SDS011;2662;51.194;6.614;2023-02-04T04:20:50;26.73;;;3.70;;
5277;SDS011;2662;51.194;6.614;2023-02-04T04:23:17;16.50;;;3.50;;
5277;SDS011;2662;51.194;6.614;2023-02-04T04:25:45;19.13;;;3.27;;
5277;SDS011;2662;51.194;6.614;2023-02-04T04:28:11;16.93;;;3.40;;
5277;SDS011;2662;51.194;6.614;2023-02-04T04:30:38;17.17;;;2.33;;
5277;SDS011;2662;51.194;6.614;2023-02-04T04:33:05;18.50;;;3.27;;
5277;SDS011;2662;51.194;6.614;2023-02-04T04:35:31;14.00;;;2.67;;
5277;SDS011;2662;51.194;6.614;2023-02-04T04:37:58;13.10;;;2.77;;
5277;SDS011;2662;51.194;6.614;2023-02-04T04:40:25;18.87;;;3.10;;
5277;SDS011;2662;51.194;6.614;2023-02-04T04:42:53;15.13;;;2.70;;
5277;SDS011;2662;51.194;6.614;2023-02-04T04:45:20;17.63;;;2.90;;
5277;SDS011;2662;51.194;6.614;2023-02-04T04:47:47;14.80;;;2.73;;
5277;SDS011;2662;51.194;6.614;2023-02-04T04:50:14;20.77;;;2.90;;
5277;SDS011;2662;51.194;6.614;2023-02-04T04:52:41;14.80;;;2.90;;
5277;SDS011;2662;51.194;6.614;2023-02-04T04:55:08;18.77;;;2.97;;
5277;SDS011;2662;51.194;6.614;2023-02-04T04:57:35;22.87;;;3.67;;
5277;SDS011;2662;51.194;6.614;2023-02-04T05:00:03;17.17;;;2.63;;
5277;SDS011;2662;51.194;6.614;2023-02-04T05:02:31;20.07;;;3.83;;
5277;SDS011;2662;51.194;6.614;2023-02-04T05:04:58;16.73;;;2.73;;
5277;SDS011;2662;51.194;6.614;2023-02-04T05:07:25;18.00;;;2.87;;
5277;SDS011;2662;51.194;6.614;2023-02-04T05:09:52;21.30;;;3.20;;
5277;SDS011;2662;51.194;6.614;2023-02-04T05:12:18;19.40;;;3.40;;
5277;SDS011;2662;51.194;6.614;2023-02-04T05:14:45;10.73;;;2.80;;
5277;SDS011;2662;51.194;6.614;2023-02-04T05:17:13;21.60;;;3.70;;
5277;SDS011;2662;51.194;6.614;2023-02-04T05:19:40;22.67;;;2.90;;
5277;SDS011;2662;51.194;6.614;2023-02-04T05:22:06;21.63;;;3.47;;
5277;SDS011;2662;51.194;6.614;2023-02-04T05:24:33;17.63;;;2.87;;
5277;SDS011;2662;51.194;6.614;2023-02-04T05:27:00;15.80;;;2.50;;
5277;SDS011;2662;51.194;6.614;2023-02-04T05:29:26;26.67;;;3.30;;
5277;SDS011;2662;51.194;6.614;2023-02-04T05:31:53;17.93;;;3.63;;
5277;SDS011;2662;51.194;6.614;2023-02-04T05:34:21;15.53;;;2.57;;
5277;SDS011;2662;51.194;6.614;2023-02-04T05:36:48;19.93;;;3.33;;
5277;SDS011;2662;51.194;6.614;2023-02-04T05:39:15;22.67;;;3.63;;
5277;SDS011;2662;51.194;6.614;2023-02-04T05:41:41;16.83;;;2.83;;
5277;SDS011;2662;51.194;6.614;2023-02-04T05:44:08;36.67;;;3.20;;
5277;SDS011;2662;51.194;6.614;2023-02-04T05:46:35;20.43;;;2.90;;
5277;SDS011;2662;51.194;6.614;2023-02-04T05:49:03;17.60;;;3.13;;
5277;SDS011;2662;51.194;6.614;2023-02-04T05:51:31;18.00;;;3.30;;
5277;SDS011;2662;51.194;6.614;2023-02-04T05:53:58;18.80;;;3.00;;
5277;SDS011;2662;51.194;6.614;2023-02-04T05:56:24;22.87;;;3.07;;
5277;SDS011;2662;51.194;6.614;2023-02-04T05:58:51;24.17;;;3.67;;
5277;SDS011;2662;51.194;6.614;2023-02-04T06:01:18;22.90;;;3.10;;
5277;SDS011;2662;51.194;6.614;2023-02-04T06:03:44;20.37;;;3.93;;
5277;SDS011;2662;51.194;6.614;2023-02-04T06:06:11;28.00;;;3.93;;
5277;SDS011;2662;51.194;6.614;2023-02-04T06:08:39;28.23;;;4.07;;
5277;SDS011;2662;51.194;6.614;2023-02-04T06:11:06;8.20;;;2.10;;
5277;SDS011;2662;51.194;6.614;2023-02-04T06:13:32;20.03;;;3.80;;
5277;SDS011;2662;51.194;6.614;2023-02-04T06:15:59;27.13;;;3.23;;
5277;SDS011;2662;51.194;6.614;2023-02-04T06:18:26;24.30;;;4.40;;
5277;SDS011;2662;51.194;6.614;2023-02-04T06:20:53;20.60;;;4.00;;
5277;SDS011;2662;51.194;6.614;2023-02-04T06:23:19;20.60;;;3.23;;
5277;SDS011;2662;51.194;6.614;2023-02-04T06:25:47;14.20;;;3.20;;
5277;SDS011;2662;51.194;6.614;2023-02-04T06:28:14;35.13;;;4.43;;
5277;SDS011;2662;51.194;6.614;2023-02-04T06:30:41;11.87;;;3.23;;
5277;SDS011;2662;51.194;6.614;2023-02-04T06:33:08;19.10;;;3.67;;
5277;SDS011;2662;51.194;6.614;2023-02-04T06:35:34;29.40;;;3.67;;
5277;SDS011;2662;51.194;6.614;2023-02-04T06:38:01;16.53;;;3.73;;
5277;SDS011;2662;51.194;6.614;2023-02-04T06:40:28;13.80;;;3.70;;
5277;SDS011;2662;51.194;6.614;2023-02-04T06:42:56;16.87;;;3.47;;
5277;SDS011;2662;51.194;6.614;2023-02-04T06:45:23;18.60;;;3.60;;
5277;SDS011;2662;51.194;6.614;2023-02-04T06:47:49;20.23;;;4.13;;
5277;SDS011;2662;51.194;6.614;2023-02-04T06:50:16;26.93;;;3.50;;
5277;SDS011;2662;51.194;6.614;2023-02-04T06:52:43;22.93;;;3.47;;
5277;SDS011;2662;51.194;6.614;2023-02-04T06:55:11;20.50;;;4.60;;
5277;SDS011;2662;51.194;6.614;2023-02-04T06:57:38;30.23;;;4.10;;
5277;SDS011;2662;51.194;6.614;2023-02-04T07:00:07;30.23;;;3.50;;
5277;SDS011;2662;51.194;6.614;2023-02-04T07:05:33;20.47;;;3.83;;
5277;SDS011;2662;51.194;6.614;2023-02-04T07:08:00;20.83;;;4.20;;
5277;SDS011;2662;51.194;6.614;2023-02-04T07:10:27;28.20;;;3.97;;
5277;SDS011;2662;51.194;6.614;2023-02-04T07:12:54;28.30;;;4.57;;
5277;SDS011;2662;51.194;6.614;2023-02-04T07:15:22;18.50;;;3.27;;
5277;SDS011;2662;51.194;6.614;2023-02-04T07:17:49;17.13;;;4.47;;
5277;SDS011;2662;51.194;6.614;2023-02-04T07:20:16;16.60;;;3.97;;
5277;SDS011;2662;51.194;6.614;2023-02-04T07:22:43;33.60;;;4.90;;
5277;SDS011;2662;51.194;6.614;2023-02-04T07:25:10;13.50;;;4.10;;
5277;SDS011;2662;51.194;6.614;2023-02-04T07:27:39;18.60;;;3.90;;
5277;SDS011;2662;51.194;6.614;2023-02-04T07:30:06;23.17;;;4.97;;
5277;SDS011;2662;51.194;6.614;2023-02-04T07:32:35;19.23;;;4.33;;
5277;SDS011;2662;51.194;6.614;2023-02-04T07:35:02;24.13;;;4.33;;
5277;SDS011;2662;51.194;6.614;2023-02-04T07:37:28;20.67;;;4.73;;
5277;SDS011;2662;51.194;6.614;2023-02-04T07:39:55;15.20;;;4.53;;
5277;SDS011;2662;51.194;6.614;2023-02-04T07:42:22;26.03;;;5.10;;
5277;SDS011;2662;51.194;6.614;2023-02-04T07:44:48;33.63;;;5.60;;
5277;SDS011;2662;51.194;6.614;2023-02-04T07:47:15;18.90;;;4.20;;
5277;SDS011;2662;51.194;6.614;2023-02-04T07:49:43;17.87;;;4.37;;
5277;SDS011;2662;51.194;6.614;2023-02-04T07:52:10;24.57;;;4.70;;
5277;SDS011;2662;51.194;6.614;2023-02-04T07:54:36;20.13;;;4.53;;
5277;SDS011;2662;51.194;6.614;2023-02-04T07:57:03;24.43;;;4.90;;
5277;SDS011;2662;51.194;6.614;2023-02-04T07:59:30;19.97;;;5.23;;
5277;SDS011;2662;51.194;6.614;2023-02-04T08:01:56;21.13;;;4.63;;
5277;SDS011;2662;51.194;6.614;2023-02-04T08:04:23;17.13;;;4.70;;
5277;SDS011;2662;51.194;6.614;2023-02-04T08:06:51;28.33;;;6.17;;
5277;SDS011;2662;51.194;6.614;2023-02-04T08:09:18;22.77;;;4.70;;
5277;SDS011;2662;51.194;6.614;2023-02-04T08:11:45;30.70;;;5.33;;
5277;SDS011;2662;51.194;6.614;2023-02-04T08:14:11;25.83;;;5.80;;
5277;SDS011;2662;51.194;6.614;2023-02-04T08:16:38;25.03;;;4.70;;
5277;SDS011;2662;51.194;6.614;2023-02-04T08:19:05;35.07;;;4.93;;
5277;SDS011;2662;51.194;6.614;2023-02-04T08:21:31;31.70;;;5.37;;
5277;SDS011;2662;51.194;6.614;2023-02-04T08:23:59;23.20;;;4.80;;
5277;SDS011;2662;51.194;6.614;2023-02-04T08:26:26;22.70;;;5.50;;
5277;SDS011;2662;51.194;6.614;2023-02-04T08:28:53;20.33;;;4.23;;
5277;SDS011;2662;51.194;6.614;2023-02-04T08:31:20;28.33;;;6.00;;
5277;SDS011;2662;51.194;6.614;2023-02-04T08:33:47;21.23;;;4.50;;
5277;SDS011;2662;51.194;6.614;2023-02-04T08:36:13;21.03;;;5.17;;
5277;SDS011;2662;51.194;6.614;2023-02-04T08:38:40;30.70;;;7.50;;
5277;SDS011;2662;51.194;6.614;2023-02-04T08:41:09;24.97;;;4.60;;
5277;SDS011;2662;51.194;6.614;2023-02-04T08:43:36;15.63;;;4.47;;
5277;SDS011;2662;51.194;6.614;2023-02-04T08:46:03;23.33;;;5.40;;
5277;SDS011;2662;51.194;6.614;2023-02-04T08:48:30;24.97;;;5.43;;
5277;SDS011;2662;51.194;6.614;2023-02-04T08:50:57;29.00;;;5.10;;
5277;SDS011;2662;51.194;6.614;2023-02-04T08:53:24;18.67;;;4.60;;
5277;SDS011;2662;51.194;6.614;2023-02-04T08:55:51;29.20;;;5.17;;
5277;SDS011;2662;51.194;6.614;2023-02-04T08:58:19;23.30;;;6.23;;
5277;SDS011;2662;51.194;6.614;2023-02-04T09:00:45;31.13;;;6.10;;
5277;SDS011;2662;51.194;6.614;2023-02-04T09:03:12;30.63;;;5.50;;
5277;SDS011;2662;51.194;6.614;2023-02-04T09:05:39;18.90;;;5.80;;
5277;SDS011;2662;51.194;6.614;2023-02-04T09:08:05;25.10;;;5.10;;
5277;SDS011;2662;51.194;6.614;2023-02-04T09:10:32;20.93;;;5.67;;
5277;SDS011;2662;51.194;6.614;2023-02-04T09:12:59;22.83;;;4.70;;
5277;SDS011;2662;51.194;6.614;2023-02-04T09:15:27;36.70;;;5.97;;
5277;SDS011;2662;51.194;6.614;2023-02-04T09:17:53;17.37;;;4.80;;
5277;SDS011;2662;51.194;6.614;2023-02-04T09:20:28;24.77;;;5.40;;
5277;SDS011;2662;51.194;6.614;2023-02-04T09:22:55;22.27;;;5.17;;
5277;SDS011;2662;51.194;6.614;2023-02-04T09:25:22;21.13;;;5.30;;
5277;SDS011;2662;51.194;6.614;2023-02-04T09:27:48;32.57;;;5.07;;
5277;SDS011;2662;51.194;6.614;2023-02-04T09:30:15;19.67;;;4.73;;
5277;SDS011;2662;51.194;6.614;2023-02-04T09:32:43;27.63;;;5.67;;
5277;SDS011;2662;51.194;6.614;2023-02-04T09:35:10;15.77;;;5.20;;
5277;SDS011;2662;51.194;6.614;2023-02-04T09:37:37;27.17;;;5.87;;
5277;SDS011;2662;51.194;6.614;2023-02-04T09:40:04;21.10;;;5.00;;
5277;SDS011;2662;51.194;6.614;2023-02-04T09:42:31;29.70;;;6.60;;
5277;SDS011;2662;51.194;6.614;2023-02-04T09:44:58;35.93;;;6.30;;
5277;SDS011;2662;51.194;6.614;2023-02-04T09:47:27;28.17;;;5.90;;
5277;SDS011;2662;51.194;6.614;2023-02-04T09:49:55;34.63;;;6.07;;
5277;SDS011;2662;51.194;6.614;2023-02-04T09:52:22;20.40;;;5.50;;
5277;SDS011;2662;51.194;6.614;2023-02-04T09:54:51;28.13;;;6.63;;
5277;SDS011;2662;51.194;6.614;2023-02-04T09:57:18;28.43;;;7.00;;
5277;SDS011;2662;51.194;6.614;2023-02-04T09:59:45;27.90;;;7.00;;
5277;SDS011;2662;51.194;6.614;2023-02-04T10:02:17;27.40;;;6.73;;
5277;SDS011;2662;51.194;6.614;2023-02-04T10:04:46;37.30;;;7.07;;
5277;SDS011;2662;51.194;6.614;2023-02-04T10:07:15;23.13;;;7.10;;
5277;SDS011;2662;51.194;6.614;2023-02-04T10:09:46;32.93;;;7.93;;
5277;SDS011;2662;51.194;6.614;2023-02-04T10:12:14;29.33;;;7.83;;
5277;SDS011;2662;51.194;6.614;2023-02-04T10:14:41;28.03;;;6.60;;
5277;SDS011;2662;51.194;6.614;2023-02-04T10:17:08;27.43;;;7.30;;
5277;SDS011;2662;51.194;6.614;2023-02-04T10:19:36;32.13;;;8.00;;
5277;SDS011;2662;51.194;6.614;2023-02-04T10:22:06;35.77;;;7.10;;
5277;SDS011;2662;51.194;6.614;2023-02-04T10:24:43;28.33;;;8.27;;
5277;SDS011;2662;51.194;6.614;2023-02-04T10:27:10;31.53;;;6.63;;
5277;SDS011;2662;51.194;6.614;2023-02-04T10:29:40;28.70;;;8.20;;
5277;SDS011;2662;51.194;6.614;2023-02-04T10:34:55;35.43;;;7.50;;
5277;SDS011;2662;51.194;6.614;2023-02-04T10:37:23;29.80;;;6.60;;
5277;SDS011;2662;51.194;6.614;2023-02-04T10:39:51;33.10;;;7.13;;
5277;SDS011;2662;51.194;6.614;2023-02-04T10:42:21;37.50;;;7.10;;
5277;SDS011;2662;51.194;6.614;2023-02-04T10:44:49;40.03;;;6.97;;
5277;SDS011;2662;51.194;6.614;2023-02-04T11:23:33;28.83;;;6.10;;
5277;SDS011;2662;51.194;6.614;2023-02-04T11:26:06;26.50;;;5.70;;
5277;SDS011;2662;51.194;6.614;2023-02-04T11:28:45;30.77;;;6.23;;
5277;SDS011;2662;51.194;6.614;2023-02-04T11:31:24;25.87;;;5.80;;
5277;SDS011;2662;51.194;6.614;2023-02-04T11:34:07;31.73;;;6.73;;
5277;SDS011;2662;51.194;6.614;2023-02-04T11:39:52;25.53;;;5.67;;
5277;SDS011;2662;51.194;6.614;2023-02-04T11:42:24;30.07;;;6.00;;
5277;SDS011;2662;51.194;6.614;2023-02-04T11:44:57;34.23;;;6.23;;
5277;SDS011;2662;51.194;6.614;2023-02-04T11:47:25;32.30;;;6.60;;
5277;SDS011;2662;51.194;6.614;2023-02-04T11:50:00;37.07;;;6.33;;
5277;SDS011;2662;51.194;6.614;2023-02-04T12:00:19;30.00;;;5.67;;
5277;SDS011;2662;51.194;6.614;2023-02-04T12:10:35;27.93;;;5.53;;
5277;SDS011;2662;51.194;6.614;2023-02-04T12:13:10;31.63;;;5.67;;
5277;SDS011;2662;51.194;6.614;2023-02-04T12:15:39;29.83;;;4.97;;
5277;SDS011;2662;51.194;6.614;2023-02-04T12:18:07;33.83;;;5.10;;
5277;SDS011;2662;51.194;6.614;2023-02-04T12:20:36;23.67;;;5.37;;
5277;SDS011;2662;51.194;6.614;2023-02-04T12:23:03;28.50;;;5.27;;
5277;SDS011;2662;51.194;6.614;2023-02-04T12:25:30;26.87;;;5.17;;
5277;SDS011;2662;51.194;6.614;2023-02-04T12:27:57;32.83;;;6.03;;
5277;SDS011;2662;51.194;6.614;2023-02-04T12:30:25;26.20;;;5.57;;
5277;SDS011;2662;51.194;6.614;2023-02-04T12:32:53;19.10;;;4.70;;
5277;SDS011;2662;51.194;6.614;2023-02-04T12:35:20;33.10;;;6.23;;
5277;SDS011;2662;51.194;6.614;2023-02-04T12:37:46;27.80;;;4.67;;
5277;SDS011;2662;51.194;6.614;2023-02-04T12:40:13;28.33;;;5.20;;
5277;SDS011;2662;51.194;6.614;2023-02-04T12:42:42;27.60;;;5.00;;
5277;SDS011;2662;51.194;6.614;2023-02-04T12:45:09;27.73;;;5.97;;
5277;SDS011;2662;51.194;6.614;2023-02-04T12:47:37;33.00;;;5.30;;
5277;SDS011;2662;51.194;6.614;2023-02-04T12:50:05;32.80;;;5.80;;
5277;SDS011;2662;51.194;6.614;2023-02-04T12:52:33;31.77;;;5.07;;
5277;SDS011;2662;51.194;6.614;2023-02-04T12:55:01;23.70;;;5.27;;
5277;SDS011;2662;51.194;6.614;2023-02-04T12:57:28;21.23;;;4.77;;
5277;SDS011;2662;51.194;6.614;2023-02-04T12:59:55;20.30;;;5.20;;
5277;SDS011;2662;51.194;6.614;2023-02-04T13:02:23;23.43;;;4.40;;
5277;SDS011;2662;51.194;6.614;2023-02-04T13:04:50;22.77;;;4.33;;
5277;SDS011;2662;51.194;6.614;2023-02-04T13:07:18;22.07;;;5.40;;
5277;SDS011;2662;51.194;6.614;2023-02-04T13:09:46;17.27;;;5.10;;
5277;SDS011;2662;51.194;6.614;2023-02-04T13:12:12;25.27;;;4.30;;
5277;SDS011;2662;51.194;6.614;2023-02-04T13:14:39;21.07;;;4.23;;
5277;SDS011;2662;51.194;6.614;2023-02-04T13:17:06;27.87;;;5.20;;
5277;SDS011;2662;51.194;6.614;2023-02-04T13:19:33;21.60;;;5.00;;
5277;SDS011;2662;51.194;6.614;2023-02-04T13:22:00;18.43;;;4.07;;
5277;SDS011;2662;51.194;6.614;2023-02-04T13:24:28;19.73;;;4.87;;
5277;SDS011;2662;51.194;6.614;2023-02-04T13:26:55;19.20;;;3.93;;
5277;SDS011;2662;51.194;6.614;2023-02-04T13:29:22;28.50;;;5.83;;
5277;SDS011;2662;51.194;6.614;2023-02-04T13:31:48;18.73;;;3.90;;
5277;SDS011;2662;51.194;6.614;2023-02-04T13:34:16;19.27;;;4.43;;
5277;SDS011;2662;51.194;6.614;2023-02-04T13:36:43;20.73;;;4.20;;
5277;SDS011;2662;51.194;6.614;2023-02-04T13:39:10;19.20;;;4.13;;
5277;SDS011;2662;51.194;6.614;2023-02-04T13:41:38;22.33;;;4.30;;
5277;SDS011;2662;51.194;6.614;2023-02-04T13:44:05;34.10;;;5.23;;
5277;SDS011;2662;51.194;6.614;2023-02-04T13:46:32;21.07;;;4.87;;
5277;SDS011;2662;51.194;6.614;2023-02-04T13:48:59;28.13;;;4.40;;
5277;SDS011;2662;51.194;6.614;2023-02-04T13:51:26;23.60;;;4.23;;
5277;SDS011;2662;51.194;6.614;2023-02-04T13:53:52;26.77;;;3.93;;
5277;SDS011;2662;51.194;6.614;2023-02-04T13:56:19;20.40;;;4.80;;
5277;SDS011;2662;51.194;6.614;2023-02-04T13:58:47;26.90;;;5.67;;
5277;SDS011;2662;51.194;6.614;2023-02-04T14:01:16;23.37;;;4.93;;
5277;SDS011;2662;51.194;6.614;2023-02-04T14:03:44;26.13;;;4.63;;
5277;SDS011;2662;51.194;6.614;2023-02-04T14:06:11;20.77;;;3.67;;
5277;SDS011;2662;51.194;6.614;2023-02-04T14:08:44;18.17;;;3.60;;
5277;SDS011;2662;51.194;6.614;2023-02-04T14:11:11;22.87;;;4.60;;
5277;SDS011;2662;51.194;6.614;2023-02-04T14:13:37;23.03;;;4.10;;
5277;SDS011;2662;51.194;6.614;2023-02-04T14:16:06;19.77;;;4.30;;
5277;SDS011;2662;51.194;6.614;2023-02-04T14:18:33;16.63;;;4.17;;
5277;SDS011;2662;51.194;6.614;2023-02-04T14:21:00;23.00;;;3.10;;
5277;SDS011;2662;51.194;6.614;2023-02-04T14:23:26;18.87;;;3.70;;
5277;SDS011;2662;51.194;6.614;2023-02-04T14:25:53;20.13;;;3.90;;
5277;SDS011;2662;51.194;6.614;2023-02-04T14:28:20;19.87;;;5.53;;
5277;SDS011;2662;51.194;6.614;2023-02-04T14:30:46;25.03;;;4.80;;
5277;SDS011;2662;51.194;6.614;2023-02-04T14:33:15;20.40;;;4.00;;
5277;SDS011;2662;51.194;6.614;2023-02-04T14:35:42;21.90;;;4.00;;
5277;SDS011;2662;51.194;6.614;2023-02-04T14:38:08;26.00;;;3.87;;
5277;SDS011;2662;51.194;6.614;2023-02-04T14:40:40;14.60;;;4.03;;
5277;SDS011;2662;51.194;6.614;2023-02-04T14:43:07;28.53;;;4.40;;
5277;SDS011;2662;51.194;6.614;2023-02-04T14:45:35;20.90;;;3.27;;
5277;SDS011;2662;51.194;6.614;2023-02-04T14:48:02;20.80;;;4.37;;
5277;SDS011;2662;51.194;6.614;2023-02-04T14:50:30;20.07;;;4.10;;
5277;SDS011;2662;51.194;6.614;2023-02-04T14:52:58;17.33;;;4.53;;
5277;SDS011;2662;51.194;6.614;2023-02-04T14:55:24;16.73;;;4.03;;
5277;SDS011;2662;51.194;6.614;2023-02-04T14:57:52;18.30;;;2.80;;
5277;SDS011;2662;51.194;6.614;2023-02-04T15:00:19;13.20;;;3.07;;
5277;SDS011;2662;51.194;6.614;2023-02-04T15:02:46;21.80;;;4.50;;
5277;SDS011;2662;51.194;6.614;2023-02-04T15:05:13;14.70;;;2.60;;
5277;SDS011;2662;51.194;6.614;2023-02-04T15:07:41;24.53;;;3.80;;
5277;SDS011;2662;51.194;6.614;2023-02-04T15:10:09;27.97;;;3.90;;
5277;SDS011;2662;51.194;6.614;2023-02-04T15:12:37;25.23;;;3.37;;
5277;SDS011;2662;51.194;6.614;2023-02-04T15:15:04;17.23;;;3.20;;
5277;SDS011;2662;51.194;6.614;2023-02-04T15:17:31;33.03;;;4.30;;
5277;SDS011;2662;51.194;6.614;2023-02-04T15:19:58;22.17;;;3.53;;
5277;SDS011;2662;51.194;6.614;2023-02-04T15:22:27;21.10;;;3.43;;
5277;SDS011;2662;51.194;6.614;2023-02-04T15:24:55;20.93;;;3.83;;
5277;SDS011;2662;51.194;6.614;2023-02-04T15:27:22;24.20;;;4.23;;
5277;SDS011;2662;51.194;6.614;2023-02-04T15:29:49;17.10;;;3.67;;
5277;SDS011;2662;51.194;6.614;2023-02-04T15:32:16;13.10;;;3.63;;
5277;SDS011;2662;51.194;6.614;2023-02-04T15:34:43;18.97;;;4.40;;
5277;SDS011;2662;51.194;6.614;2023-02-04T15:37:10;13.80;;;3.83;;
5277;SDS011;2662;51.194;6.614;2023-02-04T15:39:37;20.67;;;4.07;;
5277;SDS011;2662;51.194;6.614;2023-02-04T15:42:05;19.00;;;4.13;;
5277;SDS011;2662;51.194;6.614;2023-02-04T15:44:32;26.63;;;5.23;;
5277;SDS011;2662;51.194;6.614;2023-02-04T15:46:59;19.37;;;3.43;;
5277;SDS011;2662;51.194;6.614;2023-02-04T15:49:25;26.63;;;4.47;;
5277;SDS011;2662;51.194;6.614;2023-02-04T15:51:52;18.10;;;3.57;;
5277;SDS011;2662;51.194;6.614;2023-02-04T15:54:19;21.20;;;4.13;;
5277;SDS011;2662;51.194;6.614;2023-02-04T15:56:46;15.53;;;3.77;;
5277;SDS011;2662;51.194;6.614;2023-02-04T15:59:14;19.10;;;3.30;;
5277;SDS011;2662;51.194;6.614;2023-02-04T16:01:40;17.47;;;3.17;;